Time;durP1;ratioP1;P1;durP2;ratioP2;P2;SDS_P1;SDS_P2;PMS_P1;PMS_P2;Temp;Humidity;BMP_temperature;BMP_pressure;BME280_temperature;BME280_humidity;BME280_pressure;Samples;Min_cycle;Max_cycle;Signal;HPM_P1;HPM_P2
2021/08/26 00:07:17;;;;;;;23.05;8.82;;;;;;;15.82;85.47;96128.09;4975929;28;20298;-70
2021/08/26 00:09:43;;;;;;;23.98;9.25;;;;;;;15.47;86.13;96126.81;4977226;28;20731;-70
2021/08/26 00:12:11;;;;;;;18.92;8.85;;;;;;;15.49;86.28;96124.75;4976475;28;20402;-70
2021/08/26 00:14:38;;;;;;;21.60;9.23;;;;;;;15.34;86.72;96124.22;4973265;28;20314;-69
2021/08/26 00:17:05;;;;;;;19.40;8.85;;;;;;;15.31;86.81;96120.13;4976502;28;20584;-70
2021/08/26 00:19:31;;;;;;;17.15;8.63;;;;;;;15.13;87.28;96115.66;4977030;28;20671;-70
2021/08/26 00:21:58;;;;;;;15.65;7.65;;;;;;;15.13;86.75;96119.09;4976072;28;20211;-70
2021/08/26 00:24:26;;;;;;;17.50;8.45;;;;;;;15.34;86.65;96110.94;4976842;28;20204;-69
2021/08/26 00:26:52;;;;;;;19.08;8.40;;;;;;;14.94;87.37;96111.19;4977016;28;20684;-69
2021/08/26 00:29:19;;;;;;;16.98;8.40;;;;;;;14.92;87.31;96113.25;4975957;28;20671;-69
2021/08/26 00:31:45;;;;;;;18.83;8.88;;;;;;;14.91;87.69;96108.94;4976673;28;20701;-69
2021/08/26 00:34:11;;;;;;;16.92;7.80;;;;;;;14.86;87.49;96101.59;4976579;28;20203;-69
2021/08/26 00:36:38;;;;;;;19.05;8.20;;;;;;;14.88;87.05;96101.38;4975810;28;20223;-69
2021/08/26 00:39:04;;;;;;;21.67;9.15;;;;;;;14.97;87.05;96105.44;4976301;28;20204;-69
2021/08/26 00:41:32;;;;;;;17.92;8.48;;;;;;;15.19;86.54;96097.03;4975693;28;20214;-70
2021/08/26 00:43:58;;;;;;;15.10;7.75;;;;;;;14.99;86.37;96096.25;4976164;28;20207;-70
2021/08/26 00:46:26;;;;;;;20.20;8.50;;;;;;;15.31;85.60;96095.41;4975536;28;20219;-70
2021/08/26 00:48:53;;;;;;;16.55;8.30;;;;;;;14.98;86.90;96097.31;4976715;28;20218;-70
2021/08/26 00:51:19;;;;;;;18.50;8.20;;;;;;;15.07;86.29;96090.75;4976291;28;20214;-69
2021/08/26 00:53:48;;;;;;;18.42;8.80;;;;;;;15.02;86.51;96084.41;4976227;28;20628;-70
2021/08/26 00:56:15;;;;;;;18.42;8.23;;;;;;;15.06;85.74;96082.97;4974947;28;20668;-70
2021/08/26 00:58:45;;;;;;;18.73;8.07;;;;;;;15.31;84.93;96088.25;4976444;28;20218;-70
2021/08/26 01:01:12;;;;;;;14.57;7.90;;;;;;;15.15;85.25;96076.41;4974239;28;20214;-70
2021/08/26 01:03:48;;;;;;;17.83;8.63;;;;;;;15.28;85.00;96077.25;4976082;28;20203;-69
2021/08/26 01:06:20;;;;;;;18.35;8.35;;;;;;;15.18;85.36;96071.53;4975130;28;20730;-69
2021/08/26 01:08:52;;;;;;;14.98;8.38;;;;;;;15.23;85.64;96071.75;4975618;28;20679;-69
2021/08/26 01:11:21;;;;;;;18.73;8.90;;;;;;;14.95;85.81;96065.88;4976109;28;20207;-69
2021/08/26 01:13:52;;;;;;;17.52;8.25;;;;;;;14.97;86.75;96068.31;4973217;28;20984;-70
2021/08/26 01:16:18;;;;;;;19.13;9.57;;;;;;;14.81;87.22;96058.94;4975154;28;20630;-70
2021/08/26 01:18:46;;;;;;;19.85;8.95;;;;;;;15.06;87.15;96059.09;4975852;28;20250;-69
2021/08/26 01:21:14;;;;;;;19.38;9.20;;;;;;;15.07;87.33;96056.25;4975441;28;20562;-69
2021/08/26 01:23:43;;;;;;;28.15;9.63;;;;;;;15.16;87.30;96062.97;4975747;28;20211;-69
2021/08/26 01:26:12;;;;;;;21.33;9.55;;;;;;;15.28;87.38;96058.66;4974713;28;20227;-69
2021/08/26 01:28:41;;;;;;;19.48;10.10;;;;;;;15.09;88.08;96064.00;4975447;28;20207;-69
2021/08/26 01:31:07;;;;;;;26.55;10.25;;;;;;;15.13;87.90;96066.03;4975851;28;20199;-70
2021/08/26 01:33:35;;;;;;;18.35;10.07;;;;;;;15.21;87.88;96057.88;4975622;28;20218;-70
2021/08/26 01:36:03;;;;;;;17.10;9.95;;;;;;;15.23;87.78;96055.81;4974085;28;20235;-70
2021/08/26 01:38:29;;;;;;;18.67;10.15;;;;;;;15.39;86.62;96055.34;4975789;28;20211;-70
2021/08/26 01:40:56;;;;;;;21.60;10.77;;;;;;;15.20;88.02;96055.38;4975627;28;20215;-69
2021/08/26 01:43:24;;;;;;;21.98;10.55;;;;;;;15.40;87.88;96047.19;4975471;28;20214;-70
2021/08/26 01:45:50;;;;;;;29.45;10.93;;;;;;;15.32;87.69;96041.28;4974808;28;20220;-70
2021/08/26 01:48:18;;;;;;;19.42;10.45;;;;;;;15.37;88.16;96038.81;4975766;28;20208;-69
2021/08/26 01:50:45;;;;;;;18.20;10.57;;;;;;;15.37;88.51;96044.13;4975137;28;20207;-70
2021/08/26 01:53:12;;;;;;;25.23;11.38;;;;;;;15.28;89.17;96040.88;4974057;28;20199;-69
2021/08/26 01:55:38;;;;;;;22.75;10.95;;;;;;;15.52;87.47;96042.81;4974004;28;20231;-69
2021/08/26 01:58:05;;;;;;;21.17;11.77;;;;;;;15.49;87.19;96039.75;4975776;28;20211;-70
2021/08/26 02:00:33;;;;;;;22.55;10.98;;;;;;;15.55;87.64;96039.72;4974790;28;20214;-70
2021/08/26 02:02:59;;;;;;;24.60;11.35;;;;;;;15.29;87.94;96039.06;4974401;28;20772;-69
2021/08/26 02:05:26;;;;;;;23.20;11.25;;;;;;;15.37;87.58;96039.63;4974951;28;20219;-69
2021/08/26 02:07:53;;;;;;;23.90;11.20;;;;;;;15.56;87.25;96040.56;4974959;28;20203;-70
2021/08/26 02:10:20;;;;;;;24.60;10.88;;;;;;;15.52;87.90;96042.03;4974820;28;20218;-69
2021/08/26 02:12:47;;;;;;;20.40;10.88;;;;;;;15.44;87.44;96045.72;4972865;28;20211;-70
2021/08/26 02:15:15;;;;;;;23.95;10.80;;;;;;;15.59;87.29;96040.13;4974448;28;20242;-69
2021/08/26 02:17:42;;;;;;;20.35;10.25;;;;;;;15.69;86.66;96043.16;4974605;28;21091;-69
2021/08/26 02:20:10;;;;;;;21.42;10.73;;;;;;;15.63;86.81;96038.69;4974701;28;20203;-69
2021/08/26 02:22:37;;;;;;;18.20;10.05;;;;;;;15.46;87.66;96040.19;4974705;28;20207;-70
2021/08/26 02:25:05;;;;;;;18.67;10.77;;;;;;;15.67;86.97;96038.06;4968680;28;20223;-70
2021/08/26 02:27:31;;;;;;;20.80;11.07;;;;;;;15.50;86.48;96038.75;4973900;28;20214;-70
2021/08/26 02:29:58;;;;;;;21.80;10.15;;;;;;;15.37;87.46;96033.50;4975632;28;20203;-69
2021/08/26 02:32:29;;;;;;;24.48;10.88;;;;;;;15.43;86.87;96035.31;4973603;28;20395;-69
2021/08/26 02:34:56;;;;;;;20.13;10.90;;;;;;;15.53;87.08;96033.84;4973875;28;20231;-70
2021/08/26 02:37:23;;;;;;;20.55;10.80;;;;;;;15.38;86.87;96030.63;4973919;28;20224;-69
2021/08/26 02:39:49;;;;;;;21.38;10.70;;;;;;;15.40;86.85;96028.59;4974221;28;20211;-69
2021/08/26 02:42:16;;;;;;;20.50;10.20;;;;;;;15.47;86.84;96020.59;4974526;28;20218;-70
2021/08/26 02:44:42;;;;;;;23.27;10.45;;;;;;;15.42;86.64;96023.88;4974930;28;20223;-70
2021/08/26 02:47:09;;;;;;;21.80;10.73;;;;;;;15.40;86.99;96006.50;4973390;28;20199;-70
2021/08/26 02:49:37;;;;;;;18.90;10.35;;;;;;;15.33;87.37;96009.22;4974333;28;20219;-70
2021/08/26 02:52:05;;;;;;;24.65;10.88;;;;;;;15.69;86.20;96004.09;4974214;28;20207;-69
2021/08/26 02:54:32;;;;;;;24.33;10.50;;;;;;;15.30;86.73;96004.31;4972748;28;20243;-69
2021/08/26 02:56:59;;;;;;;19.05;10.02;;;;;;;15.29;86.77;96000.03;4973470;28;20597;-69
2021/08/26 02:59:25;;;;;;;19.27;10.32;;;;;;;15.38;85.41;96003.28;4975188;28;21315;-69
2021/08/26 03:01:51;;;;;;;22.15;10.80;;;;;;;15.34;85.60;95991.44;4973833;28;20628;-69
2021/08/26 03:04:18;;;;;;;20.45;10.30;;;;;;;15.20;86.31;95989.84;4974194;28;20203;-70
2021/08/26 03:06:44;;;;;;;23.00;10.45;;;;;;;15.30;86.38;95990.25;4977168;28;20210;-69
2021/08/26 03:09:12;;;;;;;20.35;10.35;;;;;;;15.50;85.98;95989.13;4977031;28;20203;-70
2021/08/26 03:11:38;;;;;;;20.67;9.65;;;;;;;15.31;86.03;95991.84;4977676;28;20210;-70
2021/08/26 03:14:05;;;;;;;23.00;11.10;;;;;;;15.22;86.38;95982.50;4973740;28;20211;-69
2021/08/26 03:16:31;;;;;;;19.98;10.80;;;;;;;15.20;86.50;95989.84;4976245;28;20274;-69
2021/08/26 03:18:58;;;;;;;19.88;10.38;;;;;;;15.11;86.84;95982.31;4977135;28;20651;-70
2021/08/26 03:21:24;;;;;;;21.63;10.95;;;;;;;15.14;86.53;95973.97;4977226;28;20207;-69
2021/08/26 03:23:51;;;;;;;19.70;10.13;;;;;;;15.29;86.22;95962.06;4976097;28;20214;-70
2021/08/26 03:26:19;;;;;;;21.02;10.32;;;;;;;15.23;86.68;95956.78;4976966;28;20222;-69
2021/08/26 03:28:45;;;;;;;23.73;11.20;;;;;;;15.08;86.40;95949.06;4977544;28;20215;-70
2021/08/26 03:31:13;;;;;;;20.60;10.75;;;;;;;15.29;86.15;95948.78;4976396;28;20727;-70
2021/08/26 03:33:39;;;;;;;21.98;10.52;;;;;;;14.93;86.66;95948.53;4977955;28;20207;-69
2021/08/26 03:36:06;;;;;;;24.67;11.25;;;;;;;14.86;87.04;95944.28;4976449;28;20227;-69
2021/08/26 03:38:32;;;;;;;20.75;10.45;;;;;;;14.62;88.26;95952.09;4976491;28;20207;-70
2021/08/26 03:40:59;;;;;;;20.65;10.63;;;;;;;14.68;87.85;95946.78;4977016;28;20207;-69
2021/08/26 03:43:27;;;;;;;22.40;11.02;;;;;;;14.95;87.24;95949.13;4977294;28;20582;-70
2021/08/26 03:45:53;;;;;;;19.90;11.50;;;;;;;14.90;87.37;95956.88;4976584;28;20322;-70
2021/08/26 03:48:20;;;;;;;20.67;10.80;;;;;;;14.77;87.16;95951.63;4976345;28;20203;-70
2021/08/26 03:50:46;;;;;;;19.45;10.73;;;;;;;14.90;86.89;95940.16;4977383;28;20211;-69
2021/08/26 03:53:12;;;;;;;19.10;10.93;;;;;;;14.88;87.39;95943.03;4976565;28;20203;-70
2021/08/26 03:55:39;;;;;;;20.75;10.38;;;;;;;14.90;87.29;95948.94;4975763;28;20250;-70
2021/08/26 03:58:05;;;;;;;21.40;10.45;;;;;;;14.80;87.47;95948.59;4976804;28;20656;-69
2021/08/26 04:00:33;;;;;;;24.95;11.32;;;;;;;15.04;86.98;95949.69;4976997;28;20203;-69
2021/08/26 04:03:00;;;;;;;17.52;10.20;;;;;;;14.83;87.55;95950.81;4976003;28;20208;-69
2021/08/26 04:05:26;;;;;;;17.75;10.38;;;;;;;14.90;86.92;95951.59;4976396;28;20218;-69
2021/08/26 04:07:53;;;;;;;21.30;10.60;;;;;;;14.87;87.32;95956.50;4976987;28;20210;-69
2021/08/26 04:10:19;;;;;;;22.23;11.05;;;;;;;15.05;86.72;95957.44;4976126;28;20199;-69
2021/08/26 04:12:46;;;;;;;20.92;10.50;;;;;;;14.83;87.63;95956.09;4974773;28;20200;-70
2021/08/26 04:15:12;;;;;;;22.98;11.07;;;;;;;14.92;86.79;95954.84;4975979;28;20242;-69
2021/08/26 04:17:40;;;;;;;20.73;11.27;;;;;;;15.14;86.43;95942.91;4975252;28;20231;-70
2021/08/26 04:20:07;;;;;;;19.48;10.63;;;;;;;15.11;86.63;95940.69;4976766;28;20208;-70
2021/08/26 04:22:34;;;;;;;18.80;10.77;;;;;;;15.03;86.74;95945.41;4976228;28;20203;-69
2021/08/26 04:25:00;;;;;;;19.60;10.65;;;;;;;15.15;86.48;95936.59;4975482;28;20587;-70
2021/08/26 04:27:27;;;;;;;20.85;10.13;;;;;;;15.02;85.55;95939.31;4975776;28;20199;-70
2021/08/26 04:29:53;;;;;;;20.08;10.85;;;;;;;15.11;86.19;95938.03;4976441;28;20204;-69
2021/08/26 04:32:19;;;;;;;20.02;10.45;;;;;;;15.21;85.04;95941.09;4976434;28;20210;-69
2021/08/26 04:34:47;;;;;;;20.40;10.95;;;;;;;15.31;86.26;95933.44;4976603;28;20220;-69
2021/08/26 04:37:14;;;;;;;18.30;10.15;;;;;;;15.06;87.13;95929.06;4974286;28;20223;-70
2021/08/26 04:39:40;;;;;;;20.15;10.60;;;;;;;15.09;86.83;95933.97;4976068;28;20218;-69
2021/08/26 04:42:06;;;;;;;24.75;11.00;;;;;;;15.18;86.31;95935.34;4976404;28;20203;-70
2021/08/26 04:44:33;;;;;;;22.17;11.00;;;;;;;15.11;86.55;95938.03;4976268;28;20231;-70
2021/08/26 04:46:59;;;;;;;22.70;11.02;;;;;;;14.97;87.50;95939.13;4975390;28;20203;-70
2021/08/26 04:49:26;;;;;;;21.30;10.85;;;;;;;14.99;86.74;95941.56;4976280;28;20246;-70
2021/08/26 04:51:53;;;;;;;18.92;10.55;;;;;;;15.19;87.22;95948.41;4976443;28;20683;-69
2021/08/26 04:54:20;;;;;;;20.45;11.40;;;;;;;15.01;86.30;95945.63;4975888;28;20211;-69
2021/08/26 04:56:46;;;;;;;19.92;10.88;;;;;;;15.04;85.30;95944.41;4974857;28;20233;-69
2021/08/26 04:59:13;;;;;;;18.92;10.23;;;;;;;14.82;86.06;95954.47;4976153;28;20203;-69
2021/08/26 05:01:39;;;;;;;19.13;10.48;;;;;;;14.66;86.86;95949.66;4976461;28;20214;-71
2021/08/26 05:04:07;;;;;;;22.60;10.73;;;;;;;14.61;87.45;95945.16;4976009;28;20211;-72
2021/08/26 05:06:34;;;;;;;19.55;9.40;;;;;;;14.64;87.06;95950.88;4974866;28;20581;-69
2021/08/26 05:09:02;;;;;;;22.05;10.88;;;;;;;14.84;87.09;95941.00;4976039;28;20211;-69
2021/08/26 05:11:28;;;;;;;23.88;10.77;;;;;;;14.87;86.71;95951.22;4975898;28;20226;-69
2021/08/26 05:13:55;;;;;;;19.70;10.80;;;;;;;14.97;86.18;95943.59;4972785;28;20840;-70
2021/08/26 05:16:21;;;;;;;20.10;10.77;;;;;;;15.10;85.57;95941.72;4975158;28;20223;-69
2021/08/26 05:18:48;;;;;;;22.13;10.60;;;;;;;14.88;86.29;95943.03;4976451;28;20208;-69
2021/08/26 05:21:14;;;;;;;23.55;10.73;;;;;;;14.70;87.47;95945.56;4975787;28;20207;-69
2021/08/26 05:23:41;;;;;;;18.30;10.25;;;;;;;14.91;86.22;95945.25;4976123;28;20219;-69
2021/08/26 05:26:12;;;;;;;20.55;10.32;;;;;;;15.14;85.78;95953.53;4974816;28;20223;-70
2021/08/26 05:28:38;;;;;;;19.60;10.15;;;;;;;14.76;86.41;95952.66;4975685;28;20212;-69
2021/08/26 05:31:05;;;;;;;18.77;10.00;;;;;;;14.74;86.56;95946.75;4975748;28;20207;-69
2021/08/26 05:33:31;;;;;;;20.58;10.90;;;;;;;15.08;86.34;95946.41;4977695;28;20242;-68
2021/08/26 05:35:58;;;;;;;20.13;10.77;;;;;;;15.18;85.72;95948.63;4974829;28;20223;-69
2021/08/26 05:38:24;;;;;;;20.58;10.45;;;;;;;14.93;86.39;95945.03;4974944;28;20733;-70
2021/08/26 05:40:50;;;;;;;19.67;10.07;;;;;;;14.90;86.25;95946.28;4975914;28;20650;-68
2021/08/26 05:43:18;;;;;;;25.35;10.95;;;;;;;15.30;86.16;95935.31;4975735;28;20202;-69
2021/08/26 05:45:45;;;;;;;19.38;10.18;;;;;;;15.13;86.02;95938.63;4975133;28;20227;-69
2021/08/26 05:48:11;;;;;;;20.55;10.40;;;;;;;15.36;85.16;95941.59;4975051;28;20206;-70
2021/08/26 05:50:38;;;;;;;25.80;11.18;;;;;;;15.28;85.85;95941.84;4975780;28;20203;-70
2021/08/26 05:53:04;;;;;;;18.98;10.30;;;;;;;15.25;85.54;95937.78;4974989;28;20203;-69
2021/08/26 05:55:31;;;;;;;20.25;10.43;;;;;;;15.52;84.93;95939.25;4974856;28;20248;-69
2021/08/26 05:57:58;;;;;;;19.88;10.52;;;;;;;15.47;84.45;95939.06;4975332;28;20231;-69
2021/08/26 06:00:26;;;;;;;19.55;9.85;;;;;;;15.56;84.48;95947.59;4975758;28;20195;-69
2021/08/26 06:02:52;;;;;;;20.73;9.73;;;;;;;15.28;85.43;95945.31;4975131;28;20211;-70
2021/08/26 06:05:19;;;;;;;19.73;9.48;;;;;;;15.63;85.08;95935.09;4974554;28;20258;-69
2021/08/26 06:07:47;;;;;;;22.23;9.95;;;;;;;15.56;84.69;95942.28;4974936;28;20206;-69
2021/08/26 06:10:14;;;;;;;21.05;10.23;;;;;;;15.40;84.53;95948.09;4975250;28;20206;-70
2021/08/26 06:12:41;;;;;;;23.00;10.48;;;;;;;15.36;85.56;95952.22;4975128;28;20207;-69
2021/08/26 06:15:09;;;;;;;18.52;9.27;;;;;;;15.82;84.73;95945.56;4974981;28;20596;-70
2021/08/26 06:17:37;;;;;;;19.15;9.30;;;;;;;15.74;83.73;95947.69;4973843;28;20230;-70
2021/08/26 06:20:05;;;;;;;19.58;9.35;;;;;;;15.77;84.05;95947.25;4975158;28;20289;-69
2021/08/26 06:22:32;;;;;;;19.77;9.63;;;;;;;15.79;83.40;95959.28;4975302;28;20218;-69
2021/08/26 06:24:58;;;;;;;18.98;9.48;;;;;;;15.90;83.47;95959.41;4974962;28;20606;-70
2021/08/26 06:27:25;;;;;;;19.33;9.32;;;;;;;16.00;83.25;95966.91;4974160;28;20210;-68
2021/08/26 06:29:51;;;;;;;18.42;8.18;;;;;;;15.66;83.81;95961.25;4972795;28;20203;-69
2021/08/26 06:32:18;;;;;;;19.95;10.00;;;;;;;16.06;82.74;95971.34;4973886;28;20210;-68
2021/08/26 06:34:46;;;;;;;19.13;10.05;;;;;;;16.25;82.52;95960.53;4973887;28;21333;-69
2021/08/26 06:37:12;;;;;;;17.02;9.02;;;;;;;16.00;82.38;95977.56;4973847;28;20234;-67
2021/08/26 06:39:39;;;;;;;20.30;9.85;;;;;;;16.26;82.50;95962.22;4974859;28;20219;-69
2021/08/26 06:42:05;;;;;;;21.38;9.48;;;;;;;16.37;82.94;95958.84;4977809;28;20199;-67
2021/08/26 06:44:32;;;;;;;18.83;9.45;;;;;;;16.20;82.82;95968.34;4976729;28;20215;-69
2021/08/26 06:46:58;;;;;;;17.25;9.77;;;;;;;16.25;82.71;95979.16;4977576;28;20200;-69
2021/08/26 06:49:25;;;;;;;17.88;9.63;;;;;;;16.41;82.63;95981.31;4976032;28;20222;-70
2021/08/26 06:51:53;;;;;;;22.25;10.02;;;;;;;16.25;83.93;95979.16;4977955;28;20215;-69
2021/08/26 06:54:19;;;;;;;21.85;10.27;;;;;;;15.92;84.87;95978.63;4977583;28;20226;-69
2021/08/26 06:56:46;;;;;;;18.05;9.32;;;;;;;16.07;84.91;95979.09;4976949;28;20214;-69
2021/08/26 06:59:12;;;;;;;18.67;10.23;;;;;;;16.23;84.40;95973.25;4977343;28;20206;-69
2021/08/26 07:01:39;;;;;;;20.58;8.93;;;;;;;16.25;84.11;95968.50;4978401;28;20211;-69
2021/08/26 07:04:05;;;;;;;17.77;9.63;;;;;;;16.39;84.79;95962.09;4977444;28;20206;-67
2021/08/26 07:06:31;;;;;;;17.25;10.07;;;;;;;16.32;84.78;95971.97;4976283;28;20222;-69
2021/08/26 07:09:00;;;;;;;20.50;9.88;;;;;;;16.62;85.56;95971.06;4977238;28;20210;-70
2021/08/26 07:11:27;;;;;;;19.20;10.13;;;;;;;16.37;85.79;95972.13;4977652;28;20235;-68
2021/08/26 07:13:53;;;;;;;22.77;10.70;;;;;;;16.55;85.17;95966.84;4978508;28;20590;-68
2021/08/26 07:16:20;;;;;;;19.70;10.23;;;;;;;16.52;84.22;95968.09;4977054;28;20223;-67
2021/08/26 07:18:46;;;;;;;19.67;9.35;;;;;;;16.47;84.73;95959.16;4977857;28;20227;-67
2021/08/26 07:21:13;;;;;;;17.42;10.05;;;;;;;16.50;85.18;95964.03;4977473;28;20219;-68
2021/08/26 07:23:39;;;;;;;19.10;10.23;;;;;;;16.46;86.02;95952.22;4977864;28;20217;-69
2021/08/26 07:26:07;;;;;;;22.13;10.80;;;;;;;16.66;86.34;95955.47;4977005;28;20219;-69
2021/08/26 07:28:34;;;;;;;21.55;10.48;;;;;;;16.37;86.85;95945.53;4978233;28;20200;-69
2021/08/26 07:31:00;;;;;;;18.23;9.40;;;;;;;16.15;86.10;95946.13;4977821;28;20202;-67
2021/08/26 07:33:27;;;;;;;20.80;10.60;;;;;;;16.46;86.16;95952.22;4977898;28;20670;-67
2021/08/26 07:35:55;;;;;;;19.52;9.90;;;;;;;16.29;86.22;95951.13;4977420;28;20231;-69
2021/08/26 07:38:22;;;;;;;20.70;10.60;;;;;;;16.62;85.86;95955.13;4977125;28;20229;-68
2021/08/26 07:40:48;;;;;;;20.48;10.60;;;;;;;16.35;86.65;95944.13;4977175;28;20208;-69
2021/08/26 07:43:16;;;;;;;20.40;10.75;;;;;;;16.45;87.38;95952.44;4977268;28;20211;-70
2021/08/26 07:45:42;;;;;;;20.77;10.57;;;;;;;16.39;87.66;95956.75;4977206;28;20227;-70
2021/08/26 07:48:09;;;;;;;18.48;10.23;;;;;;;16.27;86.53;95941.75;4976075;28;20207;-67
2021/08/26 07:50:35;;;;;;;25.17;12.10;;;;;;;16.24;87.72;95947.47;4977163;28;20256;-68
2021/08/26 07:53:02;;;;;;;21.55;11.10;;;;;;;16.30;87.70;95947.44;4977471;28;20215;-70
2021/08/26 07:55:28;;;;;;;18.55;11.40;;;;;;;16.20;88.93;95949.75;4976755;28;20257;-68
2021/08/26 07:57:56;;;;;;;20.85;11.40;;;;;;;16.45;88.87;95939.94;4977993;28;20227;-68
2021/08/26 08:00:24;;;;;;;22.25;10.68;;;;;;;16.67;87.51;95941.13;4976786;28;20703;-70
2021/08/26 08:02:50;;;;;;;21.02;11.15;;;;;;;16.50;87.97;95948.06;4976750;28;20207;-69
2021/08/26 08:05:17;;;;;;;22.90;11.88;;;;;;;16.52;88.22;95952.13;4974684;28;20605;-69
2021/08/26 08:07:45;;;;;;;20.75;11.27;;;;;;;16.49;88.35;95951.75;4976961;28;20210;-69
2021/08/26 08:10:12;;;;;;;24.40;11.68;;;;;;;16.45;89.13;95950.56;4976200;28;20207;-70
2021/08/26 08:12:39;;;;;;;25.38;11.85;;;;;;;16.42;89.32;95956.34;4976607;28;20215;-70
2021/08/26 08:15:07;;;;;;;20.27;11.30;;;;;;;16.75;88.52;95946.16;4977047;28;20219;-69
2021/08/26 08:17:35;;;;;;;21.15;11.70;;;;;;;16.89;88.30;95942.31;4975850;28;20235;-69
2021/08/26 08:20:01;;;;;;;21.35;12.18;;;;;;;16.83;88.10;95943.22;4976740;28;20664;-70
2021/08/26 08:22:28;;;;;;;21.95;10.80;;;;;;;16.66;88.48;95939.50;4976280;28;20199;-69
2021/08/26 08:24:54;;;;;;;19.55;11.70;;;;;;;16.82;88.37;95936.25;4975551;28;20234;-68
2021/08/26 08:27:21;;;;;;;22.98;11.23;;;;;;;16.63;87.89;95937.28;4975325;28;21192;-69
2021/08/26 08:29:48;;;;;;;23.55;11.95;;;;;;;16.75;87.77;95936.34;4974589;28;20207;-69
2021/08/26 08:32:14;;;;;;;22.48;12.40;;;;;;;17.06;86.30;95938.84;4976459;28;20203;-70
2021/08/26 08:34:42;;;;;;;22.33;12.20;;;;;;;17.25;86.62;95933.28;4976340;28;20234;-68
2021/08/26 08:37:09;;;;;;;23.30;12.70;;;;;;;17.25;87.89;95925.28;4974759;28;20211;-70
2021/08/26 08:39:35;;;;;;;20.25;11.50;;;;;;;17.16;87.18;95921.28;4976184;28;20227;-69
2021/08/26 08:42:02;;;;;;;20.45;11.82;;;;;;;17.22;88.15;95939.03;4975534;28;20210;-69
2021/08/26 08:44:28;;;;;;;21.60;11.45;;;;;;;17.09;87.32;95939.22;4976168;28;20238;-70
2021/08/26 08:46:58;;;;;;;24.27;12.38;;;;;;;17.43;85.99;95940.44;4974986;28;20206;-69
2021/08/26 08:49:26;;;;;;;20.42;11.93;;;;;;;17.56;86.60;95935.72;4976231;28;20199;-70
2021/08/26 08:51:55;;;;;;;21.15;11.65;;;;;;;17.33;86.98;95940.16;4976762;28;20219;-70
2021/08/26 08:54:24;;;;;;;18.65;11.65;;;;;;;17.21;86.63;95944.59;4976602;28;20215;-69
2021/08/26 08:56:51;;;;;;;23.15;11.65;;;;;;;16.85;88.40;95941.13;4976292;28;20211;-68
2021/08/26 08:59:17;;;;;;;23.42;11.75;;;;;;;16.76;89.34;95948.63;4976289;28;20231;-69
2021/08/26 09:01:50;;;;;;;26.33;12.63;;;;;;;17.18;88.54;95937.88;4976151;28;20203;-69
2021/08/26 09:04:17;;;;;;;26.25;12.80;;;;;;;16.78;88.87;95941.22;4975316;28;20627;-69
2021/08/26 09:06:44;;;;;;;23.40;12.23;;;;;;;17.04;89.86;95934.75;4974058;28;20218;-69
2021/08/26 09:09:12;;;;;;;25.33;13.20;;;;;;;16.92;90.30;95932.03;4975782;28;20199;-68
2021/08/26 09:11:48;;;;;;;29.08;13.63;;;;;;;17.32;90.27;95930.53;4976739;28;20211;-70
2021/08/26 09:14:15;;;;;;;24.98;13.63;;;;;;;17.14;89.59;95931.38;4975536;28;20200;-70
2021/08/26 09:16:44;;;;;;;25.27;14.23;;;;;;;17.34;90.16;95931.94;4975180;28;20218;-69
2021/08/26 09:19:17;;;;;;;26.02;12.20;;;;;;;17.08;88.46;95933.28;4975253;28;20269;-68
2021/08/26 09:21:44;;;;;;;23.75;13.30;;;;;;;16.89;90.82;95927.19;4975718;28;20204;-71
2021/08/26 09:24:12;;;;;;;27.55;14.13;;;;;;;17.38;91.56;95926.97;4975590;28;20291;-70
2021/08/26 09:26:41;;;;;;;25.27;13.45;;;;;;;17.15;91.13;95926.84;4975463;28;20227;-70
2021/08/26 09:29:10;;;;;;;30.13;14.23;;;;;;;16.84;90.99;95931.50;4975240;28;20199;-69
2021/08/26 09:31:38;;;;;;;27.08;13.85;;;;;;;16.91;90.13;95929.59;4975776;28;20207;-70
2021/08/26 09:34:05;;;;;;;24.70;14.43;;;;;;;16.70;91.32;95924.72;4975439;28;20684;-69
2021/08/26 09:36:33;;;;;;;23.85;14.27;;;;;;;16.85;89.38;95933.97;4974739;28;20234;-69
2021/08/26 09:39:02;;;;;;;25.02;13.68;;;;;;;16.98;89.39;95927.66;4975337;28;20227;-70
2021/08/26 09:41:41;;;;;;;29.98;13.25;;;;;;;17.13;88.49;95932.38;4975577;28;20571;-69
2021/08/26 09:44:10;;;;;;;25.63;14.05;;;;;;;17.07;89.63;95939.63;4975484;28;20203;-70
2021/08/26 09:46:37;;;;;;;27.15;15.05;;;;;;;16.78;91.28;95937.75;4975036;28;20231;-71
2021/08/26 09:49:05;;;;;;;29.70;14.80;;;;;;;17.01;91.03;95944.00;4976112;28;20210;-69
2021/08/26 09:51:32;;;;;;;26.05;13.23;;;;;;;16.81;90.95;95943.41;4975623;28;20218;-70
2021/08/26 09:53:59;;;;;;;28.35;14.90;;;;;;;16.89;91.13;95948.47;4975213;28;20786;-69
2021/08/26 09:56:26;;;;;;;51.10;24.60;;;;;;;17.25;93.02;95938.59;4975017;28;20223;-69
2021/08/26 09:58:59;;;;;;;25.13;13.90;;;;;;;17.48;89.25;95941.38;4975593;28;20227;-69
2021/08/26 10:01:26;;;;;;;28.05;14.30;;;;;;;17.36;88.53;95940.53;4974879;28;20203;-69
2021/08/26 10:03:52;;;;;;;26.05;12.75;;;;;;;17.35;88.45;95944.22;4975381;28;20668;-71
2021/08/26 10:06:19;;;;;;;26.27;14.13;;;;;;;17.25;89.13;95949.25;4974864;28;20238;-71
2021/08/26 10:08:48;;;;;;;24.13;13.63;;;;;;;17.29;89.80;95949.63;4975043;28;20211;-71
2021/08/26 10:11:18;;;;;;;27.05;15.10;;;;;;;17.76;89.30;95945.03;4974694;28;20203;-70
2021/08/26 10:13:45;;;;;;;26.33;14.98;;;;;;;17.34;89.17;95947.91;4973041;28;20234;-71
2021/08/26 10:16:13;;;;;;;28.58;15.05;;;;;;;17.74;88.80;95946.31;4974061;28;20226;-69
2021/08/26 10:18:40;;;;;;;30.20;15.70;;;;;;;17.68;88.65;95943.75;4976148;28;20234;-70
2021/08/26 10:21:08;;;;;;;28.63;16.48;;;;;;;17.33;89.04;95951.59;4974246;28;20214;-71
2021/08/26 10:23:38;;;;;;;30.75;15.90;;;;;;;17.40;90.96;95955.00;4975345;28;20313;-72
2021/08/26 10:26:07;;;;;;;28.05;15.63;;;;;;;17.61;90.25;95953.69;4973536;28;20715;-71
2021/08/26 10:28:36;;;;;;;30.35;16.60;;;;;;;17.50;91.86;95952.63;4975386;28;20291;-71
2021/08/26 10:31:26;;;;;;;29.02;15.68;;;;;;;17.77;91.18;95953.88;4974772;28;20741;-71
2021/08/26 10:34:08;;;;;;;30.27;15.98;;;;;;;17.68;92.51;95954.41;4975583;28;21066;-71
2021/08/26 10:36:43;;;;;;;28.58;16.52;;;;;;;17.49;92.20;95953.66;4974929;28;20741;-71
2021/08/26 10:39:31;;;;;;;29.23;16.30;;;;;;;17.63;91.65;95943.59;4974764;28;20222;-71
2021/08/26 10:42:19;;;;;;;32.33;17.88;;;;;;;17.41;92.66;95937.16;4974819;28;20525;-69
2021/08/26 10:45:02;;;;;;;29.63;17.85;;;;;;;17.28;93.13;95948.81;4975005;28;20223;-70
2021/08/26 10:48:03;;;;;;;33.60;18.40;;;;;;;16.98;95.62;95944.47;4974009;28;20200;-71
2021/08/26 10:50:35;;;;;;;39.85;21.42;;;;;;;16.74;97.03;95945.34;4973697;28;20232;-71
2021/08/26 10:53:04;;;;;;;42.33;23.80;;;;;;;17.07;96.39;95940.47;4974690;28;20206;-71
2021/08/26 10:55:32;;;;;;;46.15;24.95;;;;;;;16.87;97.07;95949.72;4974162;28;20242;-71
2021/08/26 10:58:33;;;;;;;45.33;26.98;;;;;;;17.07;97.51;95939.63;4974029;28;20248;-71
2021/08/26 11:01:01;;;;;;;48.72;27.02;;;;;;;16.86;97.28;95937.44;4974873;28;20207;-71
2021/08/26 11:03:53;;;;;;;52.70;30.73;;;;;;;17.21;97.53;95942.72;4974395;28;20214;-70
2021/08/26 11:06:41;;;;;;;59.05;32.08;;;;;;;17.45;97.49;95941.81;4970131;28;20315;-69
2021/08/26 11:09:28;;;;;;;62.55;32.08;;;;;;;17.46;97.46;95951.44;4974654;28;20218;-71
2021/08/26 11:11:59;;;;;;;56.25;30.50;;;;;;;16.80;98.41;95946.31;4973976;28;20217;-71
2021/08/26 11:14:27;;;;;;;47.78;23.90;;;;;;;16.51;99.77;95939.06;4971826;28;20290;-71
2021/08/26 11:16:56;;;;;;;50.20;28.75;;;;;;;16.47;100.00;95937.88;4974151;28;20211;-71
2021/08/26 11:19:32;;;;;;;50.25;29.30;;;;;;;17.08;98.98;95937.56;4973914;28;20711;-71
2021/08/26 11:22:02;;;;;;;49.17;28.40;;;;;;;17.24;97.12;95939.63;4973549;28;20295;-71
2021/08/26 11:24:53;;;;;;;45.15;25.05;;;;;;;17.16;94.98;95934.59;4973505;28;20210;-69
2021/08/26 11:27:21;;;;;;;46.85;27.27;;;;;;;17.09;97.66;95939.22;4976006;28;20302;-71
2021/08/26 11:29:50;;;;;;;41.05;24.00;;;;;;;16.76;96.86;95940.63;4973637;28;20208;-71